Terminal Aerodrome Forecast
Issued by NWS

Home | Current Version | Previous Version | Text Only | Print | Product List | Glossary On
Versions: 1 2 3 4 5 6 7 8 9 10 11 12 13 14 15 16
000
FTUS43 KDMX 261740
TAFFOD
TAF
KFOD 261740Z 2618/2718 22004KT P6SM BKN110
     FM270000 16008KT P6SM VCTS BKN040CB
     FM270100 15007KT 4SM -TSRA OVC040CB
     FM270600 15007KT 5SM BR VCTS OVC030CB
     FM271200 15008KT P6SM VCTS OVC025CB
     FM271500 17013KT P6SM BKN035=

USA.gov is the U.S. government's official web portal to all federal, state and local government web resources and services.